createdAt,value
2024-01-05T00:00:18.933Z,97031.53
2024-01-05T00:02:46.828Z,97021.66
2024-01-05T00:05:14.812Z,97033.34
2024-01-05T00:07:42.515Z,97028.25
2024-01-05T00:10:10.417Z,97032.94
2024-01-05T00:12:38.224Z,97034.72
2024-01-05T00:15:06.552Z,97033.84
2024-01-05T00:17:34.546Z,97048.59
2024-01-05T00:20:02.418Z,97044.72
2024-01-05T00:22:30.178Z,97043.44
2024-01-05T00:24:57.926Z,97049.56
2024-01-05T00:27:25.840Z,97064.44
2024-01-05T00:29:53.751Z,97053.38
2024-01-05T00:32:21.532Z,97060.72
2024-01-05T00:34:49.430Z,97051.72
2024-01-05T00:37:17.209Z,97054.88
2024-01-05T00:39:46.225Z,97059.88
2024-01-05T00:42:14.097Z,97060.81
2024-01-05T00:44:44.036Z,97057.63
2024-01-05T00:47:12.550Z,97060.56
2024-01-05T00:49:41.502Z,97062.94
2024-01-05T00:52:11.048Z,97060.31
2024-01-05T00:54:39.162Z,97053.34
2024-01-05T00:57:09.167Z,97050.72
2024-01-05T00:59:38.421Z,97054.91
2024-01-05T01:02:06.165Z,97061.75
2024-01-05T01:04:34.026Z,97054.75
2024-01-05T01:07:01.836Z,97049.16
2024-01-05T01:09:29.718Z,97053.75
2024-01-05T01:11:57.536Z,97061.34
2024-01-05T01:14:25.339Z,97056.22
2024-01-05T01:16:53.108Z,97060.56
2024-01-05T01:19:21.036Z,97056.44
2024-01-05T01:21:48.908Z,97065.50
2024-01-05T01:24:16.739Z,97058.53
2024-01-05T01:26:44.865Z,97064.34
2024-01-05T01:29:12.773Z,97056.81
2024-01-05T01:31:40.600Z,97060.31
2024-01-05T01:34:08.470Z,97056.97
2024-01-05T01:36:36.308Z,97063.75
2024-01-05T01:39:06.094Z,97067.28
2024-01-05T01:41:34.076Z,97072.59
2024-01-05T01:44:01.856Z,97069.22
2024-01-05T01:46:30.330Z,97065.59
2024-01-05T01:48:58.230Z,97074.19
2024-01-05T01:51:26.191Z,97069.56
2024-01-05T01:53:53.936Z,97082.22
2024-01-05T01:56:21.976Z,97089.47
2024-01-05T01:58:49.714Z,97089.09
2024-01-05T02:01:17.593Z,97085.97
2024-01-05T02:03:45.509Z,97088.06
2024-01-05T02:06:13.434Z,97083.38
2024-01-05T02:08:41.237Z,97084.22
2024-01-05T02:11:09.038Z,97088.78
2024-01-05T02:13:36.778Z,97090.28
2024-01-05T02:16:04.763Z,97097.72
2024-01-05T02:18:32.621Z,97102.34
2024-01-05T02:21:01.307Z,97103.78
2024-01-05T02:23:29.240Z,97104.69
2024-01-05T02:25:57.068Z,97112.03
2024-01-05T02:28:25.262Z,97116.03
2024-01-05T02:30:56.875Z,97111.81
2024-01-05T02:33:25.431Z,97109.84
2024-01-05T02:35:53.481Z,97120.28
2024-01-05T02:38:21.319Z,97112.22
2024-01-05T02:40:49.110Z,97109.78
2024-01-05T02:43:16.872Z,97109.00
2024-01-05T02:45:44.852Z,97113.25
2024-01-05T02:48:12.761Z,97107.25
2024-01-05T02:50:40.655Z,97115.75
2024-01-05T02:53:08.379Z,97115.41
2024-01-05T02:55:36.198Z,97124.06
2024-01-05T02:58:04.105Z,97125.50
2024-01-05T03:00:32.052Z,97120.56
2024-01-05T03:02:59.914Z,97123.94
2024-01-05T03:05:27.726Z,97132.78
2024-01-05T03:07:55.448Z,97139.66
2024-01-05T03:10:23.274Z,97141.84
2024-01-05T03:12:52.877Z,97151.63
2024-01-05T03:15:20.737Z,97150.81
2024-01-05T03:17:49.532Z,97151.34
2024-01-05T03:20:18.878Z,97157.78
2024-01-05T03:22:46.726Z,97160.56
2024-01-05T03:25:14.571Z,97166.09
2024-01-05T03:27:42.257Z,97161.78
2024-01-05T03:30:10.322Z,97166.91
2024-01-05T03:32:38.235Z,97169.09
2024-01-05T03:35:06.547Z,97170.16
2024-01-05T03:37:34.304Z,97186.91
2024-01-05T03:40:02.223Z,97187.91
2024-01-05T03:42:30.007Z,97182.47
2024-01-05T03:44:57.970Z,97198.09
2024-01-05T03:47:25.849Z,97191.06
2024-01-05T03:49:53.718Z,97192.63
2024-01-05T03:52:21.590Z,97186.75
2024-01-05T03:54:49.462Z,97184.06
2024-01-05T03:57:17.239Z,97193.44
2024-01-05T03:59:45.036Z,97201.00
2024-01-05T04:02:12.834Z,97199.41
2024-01-05T04:04:41.060Z,97190.91
2024-01-05T04:07:08.903Z,97199.16
2024-01-05T04:09:36.769Z,97212.06
2024-01-05T04:12:04.806Z,97210.56
2024-01-05T04:14:32.637Z,97212.06
2024-01-05T04:17:00.429Z,97221.94
2024-01-05T04:19:31.127Z,97219.25
2024-01-05T04:21:59.251Z,97216.56
2024-01-05T04:24:26.987Z,97217.06
2024-01-05T04:26:54.786Z,97225.16
2024-01-05T04:29:22.466Z,97242.50
2024-01-05T04:31:50.826Z,97239.94
2024-01-05T04:34:18.952Z,97246.94
2024-01-05T04:36:47.204Z,97242.56
2024-01-05T04:39:15.210Z,97242.19
2024-01-05T04:41:43.024Z,97248.09
2024-01-05T04:44:10.822Z,97256.09
2024-01-05T04:46:38.548Z,97247.41
2024-01-05T04:49:06.302Z,97250.41
2024-01-05T04:51:35.633Z,97251.19
2024-01-05T04:54:04.851Z,97258.59
2024-01-05T04:56:32.661Z,97261.13
2024-01-05T04:59:00.365Z,97262.34
2024-01-05T05:01:28.224Z,97262.69
2024-01-05T05:03:56.035Z,97265.16
2024-01-05T05:06:23.887Z,97263.91
2024-01-05T05:08:51.920Z,97269.09
2024-01-05T05:11:19.772Z,97267.78
2024-01-05T05:13:47.515Z,97270.97
2024-01-05T05:16:15.272Z,97271.50
2024-01-05T05:18:43.219Z,97268.22
2024-01-05T05:21:11.172Z,97274.22
2024-01-05T05:23:38.980Z,97278.69
2024-01-05T05:26:07.035Z,97268.59
2024-01-05T05:28:34.734Z,97290.13
2024-01-05T05:31:02.676Z,97276.34
2024-01-05T05:33:30.635Z,97288.09
2024-01-05T05:35:58.961Z,97290.06
2024-01-05T05:38:26.734Z,97290.16
2024-01-05T05:40:55.177Z,97285.03
2024-01-05T05:43:22.918Z,97287.00
2024-01-05T05:45:50.858Z,97284.00
2024-01-05T05:48:19.025Z,97284.94
2024-01-05T05:50:46.850Z,97284.06
2024-01-05T05:53:14.633Z,97288.91
2024-01-05T05:55:42.403Z,97284.13
2024-01-05T05:58:10.137Z,97295.34
2024-01-05T06:00:38.163Z,97293.81
2024-01-05T06:03:08.422Z,97299.72
2024-01-05T06:05:36.993Z,97298.69
2024-01-05T06:08:05.312Z,97290.84
2024-01-05T06:10:33.075Z,97303.00
2024-01-05T06:13:00.864Z,97302.94
2024-01-05T06:15:28.716Z,97301.19
2024-01-05T06:17:56.570Z,97302.44
2024-01-05T06:20:24.540Z,97303.94
2024-01-05T06:22:52.474Z,97302.97
2024-01-05T06:25:20.738Z,97310.03
2024-01-05T06:27:48.850Z,97307.41
2024-01-05T06:30:16.914Z,97306.97
2024-01-05T06:32:44.733Z,97305.28
2024-01-05T06:35:14.517Z,97303.94
2024-01-05T06:37:42.295Z,97300.56
2024-01-05T06:40:10.351Z,97302.25
2024-01-05T06:42:38.366Z,97301.78
2024-01-05T06:45:06.938Z,97297.28
2024-01-05T06:47:34.742Z,97306.28
2024-01-05T06:50:02.856Z,97308.19
2024-01-05T06:52:31.313Z,97314.59
2024-01-05T06:55:00.754Z,97312.06
2024-01-05T06:57:31.004Z,97307.72
2024-01-05T06:59:59.045Z,97318.22
2024-01-05T07:02:26.744Z,97306.84
2024-01-05T07:04:54.538Z,97312.59
2024-01-05T07:07:22.334Z,97304.03
2024-01-05T07:09:50.123Z,97298.44
2024-01-05T07:12:18.032Z,97308.63
2024-01-05T07:14:45.945Z,97302.56
2024-01-05T07:17:13.731Z,97309.69
2024-01-05T07:19:42.041Z,97315.38
2024-01-05T07:22:09.914Z,97309.69
2024-01-05T07:24:38.646Z,97315.19
2024-01-05T07:27:06.684Z,97302.41
2024-01-05T07:29:34.480Z,97304.38
2024-01-05T07:32:02.494Z,97304.00
2024-01-05T07:34:30.329Z,97312.41
2024-01-05T07:36:58.178Z,97309.06
2024-01-05T07:39:28.401Z,97307.97
2024-01-05T07:41:56.284Z,97310.06
2024-01-05T07:44:24.060Z,97320.84
2024-01-05T07:46:51.969Z,97304.97
2024-01-05T07:49:19.828Z,97306.44
2024-01-05T07:51:47.941Z,97307.44
2024-01-05T07:54:16.103Z,97299.75
2024-01-05T07:56:43.996Z,97296.69
2024-01-05T07:59:11.742Z,97301.72
2024-01-05T08:01:39.677Z,97305.53
2024-01-05T08:04:07.589Z,97294.69
2024-01-05T08:06:35.458Z,97297.38
2024-01-05T08:09:04.086Z,97298.78
2024-01-05T08:11:31.818Z,97291.47
2024-01-05T08:13:59.531Z,97292.59
2024-01-05T08:16:27.246Z,97300.31
2024-01-05T08:18:55.034Z,97312.13
2024-01-05T08:21:22.950Z,97297.06
2024-01-05T08:23:50.656Z,97299.19
2024-01-05T08:26:19.220Z,97287.00
2024-01-05T08:28:47.116Z,97302.47
2024-01-05T08:31:14.998Z,97288.47
2024-01-05T08:33:42.924Z,97300.97
2024-01-05T08:36:10.729Z,97304.63
2024-01-05T08:38:38.504Z,97305.88
2024-01-05T08:41:06.239Z,97299.81
2024-01-05T08:43:37.110Z,97304.53
2024-01-05T08:46:06.588Z,97312.03
2024-01-05T08:48:34.516Z,97310.88
2024-01-05T08:51:02.469Z,97322.00
2024-01-05T08:53:30.329Z,97318.56
2024-01-05T08:55:58.180Z,97323.34
2024-01-05T08:58:26.159Z,97326.66
2024-01-05T09:00:53.965Z,97336.63
2024-01-05T09:03:21.931Z,97323.47
2024-01-05T09:05:49.807Z,97326.88
2024-01-05T09:08:17.632Z,97333.22
2024-01-05T09:10:45.451Z,97333.72
2024-01-05T09:13:13.314Z,97335.91
2024-01-05T09:15:41.100Z,97345.00
2024-01-05T09:18:09.762Z,97360.94
2024-01-05T09:23:07.505Z,97378.31
2024-01-05T09:25:39.347Z,97362.53
2024-01-05T09:28:08.403Z,97347.25
2024-01-05T09:30:36.296Z,97347.09
2024-01-05T09:33:05.192Z,97341.31
2024-01-05T09:35:33.519Z,97328.31
2024-01-05T09:38:01.362Z,97327.63
2024-01-05T09:40:29.195Z,97318.25
2024-01-05T09:42:58.861Z,97313.28
2024-01-05T09:45:27.093Z,97302.72
2024-01-05T09:47:56.484Z,97294.84
2024-01-05T09:50:24.616Z,97270.63
2024-01-05T09:52:52.371Z,97273.66
2024-01-05T09:55:20.233Z,97262.34
2024-01-05T09:57:47.984Z,97263.94
2024-01-05T10:00:16.354Z,97254.25
2024-01-05T10:02:51.357Z,97246.25
2024-01-05T10:05:19.264Z,97238.34
2024-01-05T10:07:47.169Z,97236.69
2024-01-05T10:10:15.054Z,97225.91
2024-01-05T10:12:43.003Z,97232.53
2024-01-05T10:15:13.154Z,97244.06
2024-01-05T10:17:41.054Z,97234.34
2024-01-05T10:20:18.197Z,97231.56
2024-01-05T10:22:48.115Z,97224.28
2024-01-05T10:25:23.152Z,97211.91
2024-01-05T10:27:56.144Z,97219.16
2024-01-05T10:30:26.239Z,97222.38
2024-01-05T10:33:08.122Z,97213.00
2024-01-05T10:35:36.917Z,97221.59
2024-01-05T10:38:09.850Z,97201.50
2024-01-05T10:40:37.587Z,97218.72
2024-01-05T10:43:15.827Z,97210.94
2024-01-05T10:45:44.230Z,97196.47
2024-01-05T10:48:14.936Z,97200.63
2024-01-05T10:50:44.837Z,97216.41
2024-01-05T10:53:12.792Z,97215.19
2024-01-05T10:55:41.136Z,97207.22
2024-01-05T10:58:09.262Z,97194.22
2024-01-05T11:00:37.701Z,97182.69
2024-01-05T11:03:12.478Z,97185.59
2024-01-05T11:05:44.941Z,97188.41
2024-01-05T11:08:34.663Z,97191.22
2024-01-05T11:11:20.189Z,97170.47
2024-01-05T11:13:54.061Z,97180.72
2024-01-05T11:16:39.065Z,97181.53
2024-01-05T11:19:28.783Z,97177.00
2024-01-05T11:22:01.020Z,97181.84
2024-01-05T11:24:28.886Z,97184.97
2024-01-05T11:26:56.711Z,97196.59
2024-01-05T11:29:46.465Z,97203.84
2024-01-05T11:32:36.096Z,97190.22
2024-01-05T11:35:05.923Z,97187.06
2024-01-05T11:37:34.217Z,97187.47
2024-01-05T11:40:02.239Z,97182.88
2024-01-05T11:42:34.924Z,97183.97
2024-01-05T11:45:12.583Z,97183.00
2024-01-05T11:47:41.727Z,97196.06
2024-01-05T11:50:28.379Z,97195.72
2024-01-05T11:53:15.083Z,97194.06
2024-01-05T11:55:49.595Z,97197.06
2024-01-05T11:58:28.832Z,97189.41
2024-01-05T12:00:57.933Z,97183.53
2024-01-05T12:03:27.147Z,97173.13
2024-01-05T12:06:04.538Z,97186.31
2024-01-05T12:08:32.592Z,97182.91
2024-01-05T12:11:06.751Z,97195.41
2024-01-05T12:13:35.161Z,97189.13
2024-01-05T12:16:07.535Z,97184.56
2024-01-05T12:18:46.804Z,97188.22
2024-01-05T12:21:19.123Z,97190.56
2024-01-05T12:23:52.262Z,97199.59
2024-01-05T12:26:20.269Z,97177.22
2024-01-05T12:28:48.981Z,97189.66
2024-01-05T12:31:16.906Z,97197.41
2024-01-05T12:33:45.718Z,97196.59
2024-01-05T12:36:24.175Z,97192.09
2024-01-05T12:38:51.987Z,97200.28
2024-01-05T12:41:21.156Z,97197.75
2024-01-05T12:43:53.162Z,97197.97
2024-01-05T12:46:21.316Z,97199.56
2024-01-05T12:48:49.704Z,97206.75
2024-01-05T12:51:21.235Z,97204.72
2024-01-05T12:54:04.689Z,97189.69
2024-01-05T12:56:33.982Z,97194.81
2024-01-05T12:59:04.632Z,97189.94
2024-01-05T13:01:32.518Z,97190.59
2024-01-05T13:04:03.474Z,97199.47
2024-01-05T13:06:32.041Z,97191.41
2024-01-05T13:09:00.111Z,97190.81
2024-01-05T13:11:28.027Z,97197.47
2024-01-05T13:13:55.773Z,97207.31
2024-01-05T13:16:23.668Z,97202.13
2024-01-05T13:18:51.557Z,97197.03
2024-01-05T13:21:19.580Z,97201.56
2024-01-05T13:23:50.198Z,97191.84
2024-01-05T13:26:18.015Z,97193.00
2024-01-05T13:28:46.449Z,97195.22
2024-01-05T13:31:14.376Z,97195.81
2024-01-05T13:33:42.691Z,97196.50
2024-01-05T13:36:11.317Z,97198.25
2024-01-05T13:38:39.308Z,97187.09
2024-01-05T13:41:07.339Z,97189.84
2024-01-05T13:43:36.543Z,97189.38
2024-01-05T13:46:04.827Z,97200.88
2024-01-05T13:48:32.896Z,97196.31
2024-01-05T13:51:00.851Z,97205.94
2024-01-05T13:53:28.774Z,97200.09
2024-01-05T13:55:58.575Z,97193.94
2024-01-05T13:58:26.348Z,97208.13
2024-01-05T14:00:54.889Z,97201.69
2024-01-05T14:03:25.252Z,97204.50
2024-01-05T14:05:53.219Z,97201.88
2024-01-05T14:08:23.892Z,97191.09
2024-01-05T14:10:52.007Z,97194.38
2024-01-05T14:13:19.721Z,97198.94
2024-01-05T14:15:47.649Z,97182.38
2024-01-05T14:18:15.687Z,97182.91
2024-01-05T14:20:43.619Z,97187.28
2024-01-05T14:23:11.361Z,97183.41
2024-01-05T14:25:39.215Z,97173.66
2024-01-05T14:28:07.082Z,97168.00
2024-01-05T14:30:34.914Z,97171.13
2024-01-05T14:33:02.900Z,97170.81
2024-01-05T14:35:30.680Z,97163.56
2024-01-05T14:37:58.540Z,97156.06
2024-01-05T14:40:26.852Z,97157.97
2024-01-05T14:42:54.594Z,97162.28
2024-01-05T14:45:22.432Z,97161.38
2024-01-05T14:47:50.346Z,97171.84
2024-01-05T14:50:18.198Z,97167.44
2024-01-05T14:52:55.558Z,97169.22
2024-01-05T14:55:27.776Z,97162.66
2024-01-05T14:57:55.525Z,97163.34
2024-01-05T15:00:23.397Z,97167.28
2024-01-05T15:02:51.122Z,97161.19
2024-01-05T15:05:19.041Z,97165.72
2024-01-05T15:07:46.832Z,97160.34
2024-01-05T15:10:14.641Z,97159.50
2024-01-05T15:12:42.493Z,97151.59
2024-01-05T15:15:10.992Z,97152.75
2024-01-05T15:17:40.006Z,97161.53
2024-01-05T15:20:09.885Z,97168.06
2024-01-05T15:22:37.701Z,97166.31
2024-01-05T15:25:06.092Z,97160.00
2024-01-05T15:27:34.098Z,97161.38
2024-01-05T15:30:01.926Z,97161.09
2024-01-05T15:32:29.838Z,97159.81
2024-01-05T15:34:57.596Z,97166.16
2024-01-05T15:37:25.515Z,97178.28
2024-01-05T15:39:54.952Z,97157.63
2024-01-05T15:42:23.042Z,97159.03
2024-01-05T15:44:50.796Z,97168.38
2024-01-05T15:47:20.715Z,97164.44
2024-01-05T15:49:48.824Z,97171.97
2024-01-05T15:52:16.686Z,97177.19
2024-01-05T15:54:44.447Z,97161.31
2024-01-05T15:57:16.741Z,97171.19
2024-01-05T15:59:44.664Z,97154.50
2024-01-05T16:02:12.914Z,97168.59
2024-01-05T16:04:40.725Z,97151.47
2024-01-05T16:07:08.450Z,97152.53
2024-01-05T16:09:36.318Z,97148.28
2024-01-05T16:12:05.760Z,97161.41
2024-01-05T16:14:34.055Z,97152.13
2024-01-05T16:17:01.804Z,97157.66
2024-01-05T16:19:29.870Z,97152.03
2024-01-05T16:21:57.791Z,97145.88
2024-01-05T16:24:25.600Z,97145.34
2024-01-05T16:26:53.401Z,97145.31
2024-01-05T16:29:21.127Z,97138.56
2024-01-05T16:31:48.939Z,97136.66
2024-01-05T16:34:16.964Z,97129.94
2024-01-05T16:36:44.857Z,97125.88
2024-01-05T16:39:12.830Z,97122.88
2024-01-05T16:41:40.716Z,97122.44
2024-01-05T16:44:08.480Z,97132.06
2024-01-05T16:46:36.258Z,97143.06
2024-01-05T16:49:05.089Z,97143.28
2024-01-05T16:51:32.974Z,97157.28
2024-01-05T16:54:01.018Z,97149.28
2024-01-05T16:56:30.443Z,97138.53
2024-01-05T16:58:58.445Z,97128.94
2024-01-05T17:01:26.541Z,97122.81
2024-01-05T17:03:59.019Z,97130.00
2024-01-05T17:06:27.310Z,97139.19
2024-01-05T17:08:55.176Z,97136.38
2024-01-05T17:11:26.416Z,97131.69
2024-01-05T17:13:54.901Z,97123.84
2024-01-05T17:16:22.711Z,97140.69
2024-01-05T17:18:52.324Z,97149.78
2024-01-05T17:21:20.578Z,97142.00
2024-01-05T17:23:51.928Z,97154.03
2024-01-05T17:26:20.893Z,97159.59
2024-01-05T17:28:48.688Z,97159.59
2024-01-05T17:31:16.609Z,97158.78
2024-01-05T17:33:44.689Z,97158.97
2024-01-05T17:36:14.535Z,97142.00
2024-01-05T17:38:42.787Z,97148.28
2024-01-05T17:41:10.511Z,97157.75
2024-01-05T17:43:41.357Z,97165.75
2024-01-05T17:46:09.107Z,97158.53
2024-01-05T17:48:37.046Z,97172.69
2024-01-05T17:51:05.188Z,97153.81
2024-01-05T17:53:32.937Z,97163.50
2024-01-05T17:56:00.787Z,97181.00
2024-01-05T17:58:28.530Z,97174.34
2024-01-05T18:00:56.353Z,97168.31
2024-01-05T18:03:24.276Z,97178.47
2024-01-05T18:05:52.072Z,97173.63
2024-01-05T18:08:19.902Z,97174.72
2024-01-05T18:10:47.716Z,97176.03
2024-01-05T18:13:15.612Z,97180.97
2024-01-05T18:15:43.380Z,97179.91
2024-01-05T18:18:11.683Z,97168.38
2024-01-05T18:20:39.653Z,97177.50
2024-01-05T18:23:07.534Z,97187.19
2024-01-05T18:25:37.599Z,97185.13
2024-01-05T18:28:07.132Z,97191.56
2024-01-05T18:30:35.484Z,97186.69
2024-01-05T18:33:03.512Z,97185.72
2024-01-05T18:35:57.365Z,97173.81
2024-01-05T18:38:25.686Z,97195.72
2024-01-05T18:41:06.713Z,97173.75
2024-01-05T18:44:00.695Z,97188.31
2024-01-05T18:46:28.692Z,97185.91
2024-01-05T18:48:56.579Z,97187.84
2024-01-05T18:51:24.400Z,97174.59
2024-01-05T18:53:52.241Z,97175.50
2024-01-05T18:56:19.957Z,97178.00
2024-01-05T18:58:47.736Z,97168.59
2024-01-05T19:01:15.605Z,97168.03
2024-01-05T19:03:43.514Z,97165.28
2024-01-05T19:06:16.001Z,97158.88
2024-01-05T19:08:44.738Z,97152.31
2024-01-05T19:11:12.637Z,97157.66
2024-01-05T19:13:40.580Z,97143.28
2024-01-05T19:16:08.453Z,97151.44
2024-01-05T19:18:36.535Z,97145.81
2024-01-05T19:21:05.141Z,97143.22
2024-01-05T19:23:33.325Z,97130.47
2024-01-05T19:26:01.188Z,97139.38
2024-01-05T19:28:29.361Z,97144.94
2024-01-05T19:30:57.514Z,97130.41
2024-01-05T19:33:25.853Z,97134.13
2024-01-05T19:35:53.695Z,97140.81
2024-01-05T19:38:21.551Z,97134.28
2024-01-05T19:40:50.650Z,97120.59
2024-01-05T19:43:18.399Z,97130.50
2024-01-05T19:45:53.682Z,97117.69
2024-01-05T19:48:25.356Z,97124.94
2024-01-05T19:50:53.149Z,97129.66
2024-01-05T19:53:20.943Z,97135.34
2024-01-05T19:55:48.670Z,97139.06
2024-01-05T19:58:16.533Z,97132.34
2024-01-05T20:00:44.342Z,97135.06
2024-01-05T20:03:12.291Z,97131.72
2024-01-05T20:05:40.249Z,97132.34
2024-01-05T20:08:08.132Z,97115.94
2024-01-05T20:10:35.930Z,97120.19
2024-01-05T20:13:04.647Z,97116.97
2024-01-05T20:15:33.714Z,97110.56
2024-01-05T20:18:04.739Z,97124.41
2024-01-05T20:20:32.796Z,97129.25
2024-01-05T20:23:00.572Z,97117.72
2024-01-05T20:25:28.347Z,97107.41
2024-01-05T20:27:56.468Z,97124.44
2024-01-05T20:30:24.770Z,97110.78
2024-01-05T20:32:53.277Z,97118.72
2024-01-05T20:35:21.386Z,97092.84
2024-01-05T20:37:49.221Z,97096.09
2024-01-05T20:40:17.119Z,97089.63
2024-01-05T20:42:45.014Z,97089.69
2024-01-05T20:45:14.705Z,97055.16
2024-01-05T20:47:42.786Z,97087.19
2024-01-05T20:50:10.747Z,97087.13
2024-01-05T20:52:39.186Z,97083.41
2024-01-05T20:55:07.458Z,97095.28
2024-01-05T20:57:36.026Z,97074.63
2024-01-05T21:00:06.194Z,97073.09
2024-01-05T21:02:34.082Z,97085.00
2024-01-05T21:05:01.869Z,97064.38
2024-01-05T21:07:29.928Z,97081.66
2024-01-05T21:09:57.900Z,97071.84
2024-01-05T21:12:25.792Z,97043.88
2024-01-05T21:14:53.874Z,97049.97
2024-01-05T21:17:21.886Z,97060.66
2024-01-05T21:20:08.869Z,97072.06
2024-01-05T21:22:36.717Z,97079.94
2024-01-05T21:25:06.756Z,97084.41
2024-01-05T21:27:34.816Z,97084.66
2024-01-05T21:30:04.602Z,97070.38
2024-01-05T21:32:32.561Z,97098.00
2024-01-05T21:35:00.336Z,97085.03
2024-01-05T21:37:28.206Z,97084.91
2024-01-05T21:39:56.066Z,97102.78
2024-01-05T21:42:24.469Z,97099.72
2024-01-05T21:44:52.286Z,97082.94
2024-01-05T21:47:20.710Z,97079.81
2024-01-05T21:49:48.682Z,97078.13
2024-01-05T21:52:16.506Z,97085.16
2024-01-05T21:54:44.424Z,97075.03
2024-01-05T21:57:12.264Z,97084.72
2024-01-05T21:59:40.394Z,97066.06
2024-01-05T22:02:08.344Z,97068.13
2024-01-05T22:04:36.471Z,97073.41
2024-01-05T22:07:04.635Z,97075.56
2024-01-05T22:09:32.463Z,97072.66
2024-01-05T22:12:00.239Z,97075.28
2024-01-05T22:14:28.148Z,97086.44
2024-01-05T22:16:56.765Z,97078.56
2024-01-05T22:19:24.742Z,97080.34
2024-01-05T22:21:52.622Z,97070.84
2024-01-05T22:24:20.667Z,97088.25
2024-01-05T22:26:48.556Z,97074.88
2024-01-05T22:29:16.357Z,97063.16
2024-01-05T22:31:47.273Z,97076.06
2024-01-05T22:34:15.510Z,97059.78
2024-01-05T22:36:43.306Z,97067.53
2024-01-05T22:39:13.219Z,97066.66
2024-01-05T22:41:41.164Z,97053.44
2024-01-05T22:44:08.967Z,97072.09
2024-01-05T22:46:37.461Z,97069.53
2024-01-05T22:49:05.422Z,97053.25
2024-01-05T22:51:33.424Z,97051.88
2024-01-05T22:54:01.400Z,97054.22
2024-01-05T22:56:29.148Z,97058.16
2024-01-05T22:58:56.963Z,97044.34
2024-01-05T23:01:24.777Z,97053.69
2024-01-05T23:03:53.350Z,97060.16
2024-01-05T23:06:23.965Z,97038.28
2024-01-05T23:08:51.929Z,97028.78
2024-01-05T23:11:19.622Z,97031.69
2024-01-05T23:13:47.412Z,97024.19
2024-01-05T23:16:15.226Z,97019.28
2024-01-05T23:18:43.569Z,97006.88
2024-01-05T23:21:11.969Z,97005.75
2024-01-05T23:23:40.212Z,97006.53
2024-01-05T23:26:17.402Z,97004.16
2024-01-05T23:28:46.626Z,97007.19
2024-01-05T23:31:15.779Z,97013.91
2024-01-05T23:34:03.703Z,97001.38
2024-01-05T23:36:37.129Z,97010.06
2024-01-05T23:39:05.655Z,97022.72
2024-01-05T23:41:34.482Z,97021.94
2024-01-05T23:44:03.367Z,97021.66
2024-01-05T23:46:32.212Z,97005.09
2024-01-05T23:49:00.228Z,97013.28
2024-01-05T23:51:28.118Z,97008.97
2024-01-05T23:53:56.406Z,97016.44
2024-01-05T23:56:24.157Z,97014.16
2024-01-05T23:58:51.963Z,97024.50
